Time,TemperatureF,DewpointF,PressureIn,WindDirection,WindDirectionDegrees,WindSpeedMPH,WindSpeedGustMPH,Humidity,HourlyPrecipIn,Conditions,Clouds,dailyrainin,SoftwareType,DateUTC
2013-05-12 00:00:00,56.8,54.5,29.82,South,180,0.0,4.5,92,0.00,,,0.20,WUHU21623XXSP,2013-05-12 04:00:00,
2013-05-12 00:01:00,56.8,54.5,29.82,South,180,0.0,4.5,92,0.00,,,0.20,WUHU21623XXSP,2013-05-12 04:01:00,
2013-05-12 00:06:00,56.8,54.5,29.81,South,180,0.0,0.0,92,0.00,,,0.00,WUHU21623XXSP,2013-05-12 04:06:00,
2013-05-12 00:11:00,57.0,54.7,29.81,South,180,0.0,0.0,92,0.00,,,0.00,WUHU21623XXSP,2013-05-12 04:11:00,
2013-05-12 00:16:00,57.0,54.7,29.82,South,180,0.0,0.0,92,0.00,,,0.00,WUHU21623XXSP,2013-05-12 04:16:00,
2013-05-12 00:21:00,57.0,54.7,29.82,South,180,0.0,0.0,92,0.00,,,0.00,WUHU21623XXSP,2013-05-12 04:21:00,
2013-05-12 00:26:00,56.8,54.5,29.82,South,180,0.0,0.0,92,0.00,,,0.00,WUHU21623XXSP,2013-05-12 04:26:00,
2013-05-12 00:31:00,56.8,54.5,29.81,South,180,0.0,0.0,92,0.00,,,0.00,WUHU21623XXSP,2013-05-12 04:31:00,
2013-05-12 00:36:00,57.0,54.7,29.81,South,180,0.0,0.0,92,0.00,,,0.00,WUHU21623XXSP,2013-05-12 04:36:00,
2013-05-12 00:41:00,57.0,54.7,29.81,South,180,0.0,0.0,92,0.00,,,0.00,WUHU21623XXSP,2013-05-12 04:41:00,
2013-05-12 00:46:00,56.8,54.5,29.81,South,180,0.0,0.0,92,0.00,,,0.00,WUHU21623XXSP,2013-05-12 04:46:00,
2013-05-12 00:51:00,56.8,54.5,29.80,South,180,0.0,0.0,92,0.00,,,0.00,WUHU21623XXSP,2013-05-12 04:51:00,
2013-05-12 00:56:00,56.5,54.2,29.80,South,180,0.0,0.0,92,0.00,,,0.00,WUHU21623XXSP,2013-05-12 04:56:00,
2013-05-12 01:01:00,56.5,54.2,29.80,South,180,0.0,0.0,92,0.00,,,0.00,WUHU21623XXSP,2013-05-12 05:01:00,
2013-05-12 01:06:00,56.3,54.0,29.80,South,180,0.0,0.0,92,0.00,,,0.00,WUHU21623XXSP,2013-05-12 05:06:00,
2013-05-12 01:11:00,56.1,53.8,29.80,South,180,0.0,0.0,92,0.00,,,0.00,WUHU21623XXSP,2013-05-12 05:11:00,
2013-05-12 01:16:00,55.9,53.6,29.79,South,180,0.0,0.0,92,0.00,,,0.00,WUHU21623XXSP,2013-05-12 05:16:00,
2013-05-12 01:21:00,55.8,53.5,29.79,South,180,0.0,0.0,92,0.00,,,0.00,WUHU21623XXSP,2013-05-12 05:21:00,
2013-05-12 01:26:00,55.8,53.5,29.78,South,180,0.0,0.0,92,0.00,,,0.00,WUHU21623XXSP,2013-05-12 05:26:00,
2013-05-12 01:31:00,55.9,53.6,29.79,South,180,0.0,0.0,92,0.00,,,0.00,WUHU21623XXSP,2013-05-12 05:31:00,
2013-05-12 01:36:00,55.9,53.6,29.79,South,180,0.0,0.0,92,0.00,,,0.00,WUHU21623XXSP,2013-05-12 05:36:00,
2013-05-12 01:41:00,55.9,53.6,29.79,South,180,0.0,0.0,92,0.00,,,0.00,WUHU21623XXSP,2013-05-12 05:41:00,
2013-05-12 01:46:00,55.9,53.6,29.79,South,180,0.0,0.0,92,0.00,,,0.00,WUHU21623XXSP,2013-05-12 05:46:00,
2013-05-12 01:51:00,55.6,53.3,29.78,South,180,0.0,0.0,92,0.00,,,0.00,WUHU21623XXSP,2013-05-12 05:51:00,
2013-05-12 01:56:00,55.6,53.3,29.79,South,180,0.0,0.0,92,0.00,,,0.00,WUHU21623XXSP,2013-05-12 05:56:00,
2013-05-12 02:01:00,55.6,53.3,29.78,South,180,0.0,0.0,92,0.00,,,0.00,WUHU21623XXSP,2013-05-12 06:01:00,
2013-05-12 02:06:00,55.4,53.1,29.79,South,180,0.0,0.0,92,0.00,,,0.00,WUHU21623XXSP,2013-05-12 06:06:00,
2013-05-12 02:11:00,55.4,53.1,29.79,South,180,0.0,0.0,92,0.00,,,0.00,WUHU21623XXSP,2013-05-12 06:11:00,
2013-05-12 02:16:00,55.4,53.1,29.79,South,180,0.0,0.0,92,0.00,,,0.00,WUHU21623XXSP,2013-05-12 06:16:00,
2013-05-12 02:21:00,55.6,53.3,29.78,South,180,0.0,0.0,92,0.00,,,0.00,WUHU21623XXSP,2013-05-12 06:21:00,
2013-05-12 02:26:00,55.8,53.5,29.78,South,180,0.0,0.0,92,0.00,,,0.00,WUHU21623XXSP,2013-05-12 06:26:00,
2013-05-12 02:31:00,55.8,53.5,29.78,South,180,0.0,0.0,92,0.00,,,0.00,WUHU21623XXSP,2013-05-12 06:31:00,
2013-05-12 02:36:00,55.8,53.5,29.77,South,180,0.0,0.0,92,0.00,,,0.00,WUHU21623XXSP,2013-05-12 06:36:00,
2013-05-12 02:41:00,55.9,53.6,29.78,South,180,0.0,0.0,92,0.00,,,0.00,WUHU21623XXSP,2013-05-12 06:41:00,
2013-05-12 02:46:00,55.9,53.6,29.78,South,180,0.0,0.0,92,0.00,,,0.00,WUHU21623XXSP,2013-05-12 06:46:00,
2013-05-12 02:51:00,55.9,53.6,29.79,South,180,0.0,0.0,92,0.00,,,0.00,WUHU21623XXSP,2013-05-12 06:51:00,
2013-05-12 02:56:00,55.9,53.6,29.78,South,180,0.0,0.0,92,0.00,,,0.00,WUHU21623XXSP,2013-05-12 06:56:00,
2013-05-12 03:01:00,55.9,53.6,29.78,South,180,0.0,0.0,92,0.00,,,0.00,WUHU21623XXSP,2013-05-12 07:01:00,
2013-05-12 03:06:00,55.9,53.6,29.78,South,180,0.0,0.0,92,0.00,,,0.00,WUHU21623XXSP,2013-05-12 07:06:00,
2013-05-12 03:11:00,55.9,53.6,29.78,South,180,0.0,0.0,92,0.00,,,0.00,WUHU21623XXSP,2013-05-12 07:11:00,
2013-05-12 03:16:00,55.9,53.6,29.78,South,180,0.0,0.0,92,0.00,,,0.00,WUHU21623XXSP,2013-05-12 07:16:00,
2013-05-12 03:21:00,55.9,53.6,29.78,South,180,0.0,0.0,92,0.00,,,0.00,WUHU21623XXSP,2013-05-12 07:21:00,
2013-05-12 03:26:00,55.8,53.5,29.78,South,180,0.0,0.0,92,0.00,,,0.00,WUHU21623XXSP,2013-05-12 07:26:00,
2013-05-12 03:31:00,55.8,53.5,29.78,South,180,0.0,0.0,92,0.00,,,0.00,WUHU21623XXSP,2013-05-12 07:31:00,
2013-05-12 03:36:00,55.8,53.5,29.77,South,180,0.0,0.0,92,0.00,,,0.00,WUHU21623XXSP,2013-05-12 07:36:00,
2013-05-12 03:41:00,55.6,53.3,29.76,South,180,0.0,0.0,92,0.00,,,0.00,WUHU21623XXSP,2013-05-12 07:41:00,
2013-05-12 03:46:00,55.2,52.9,29.77,South,180,0.0,0.0,92,0.00,,,0.00,WUHU21623XXSP,2013-05-12 07:46:00,
2013-05-12 03:51:00,55.0,52.7,29.77,SSW,202,0.0,0.0,92,0.00,,,0.00,WUHU21623XXSP,2013-05-12 07:51:00,
2013-05-12 03:56:00,54.9,52.6,29.76,SSW,202,0.0,0.0,92,0.00,,,0.00,WUHU21623XXSP,2013-05-12 07:56:00,
2013-05-12 04:02:00,54.9,52.6,29.76,SSW,202,0.0,0.0,92,0.00,,,0.00,WUHU21623XXSP,2013-05-12 08:02:00,
2013-05-12 04:07:00,54.7,52.4,29.76,SSW,202,0.0,0.0,92,0.00,,,0.00,WUHU21623XXSP,2013-05-12 08:07:00,
2013-05-12 04:12:00,54.7,52.4,29.76,SSW,202,0.0,0.0,92,0.00,,,0.00,WUHU21623XXSP,2013-05-12 08:12:00,
2013-05-12 04:17:00,54.7,52.4,29.76,SSW,202,0.0,0.0,92,0.00,,,0.00,WUHU21623XXSP,2013-05-12 08:17:00,
2013-05-12 04:22:00,54.7,52.4,29.76,SSW,202,0.0,0.0,92,0.00,,,0.00,WUHU21623XXSP,2013-05-12 08:22:00,
2013-05-12 04:27:00,54.3,52.0,29.76,SSW,202,0.0,0.0,92,0.00,,,0.00,WUHU21623XXSP,2013-05-12 08:27:00,
2013-05-12 04:32:00,54.1,51.8,29.76,SSW,202,0.0,0.0,92,0.00,,,0.00,WUHU21623XXSP,2013-05-12 08:32:00,
2013-05-12 04:37:00,54.1,51.8,29.77,SSW,202,0.0,0.0,92,0.00,,,0.00,WUHU21623XXSP,2013-05-12 08:37:00,
2013-05-12 04:42:00,54.1,51.8,29.78,SSW,202,0.0,0.0,92,0.00,,,0.00,WUHU21623XXSP,2013-05-12 08:42:00,
2013-05-12 04:47:00,54.0,51.7,29.78,SSW,202,0.0,0.0,92,0.00,,,0.00,WUHU21623XXSP,2013-05-12 08:47:00,
2013-05-12 04:52:00,54.0,51.7,29.77,SW,225,0.0,2.0,92,0.00,,,0.00,WUHU21623XXSP,2013-05-12 08:52:00,
2013-05-12 04:57:00,53.8,51.5,29.78,SSW,202,0.0,2.0,92,0.00,,,0.00,WUHU21623XXSP,2013-05-12 08:57:00,
2013-05-12 05:02:00,53.4,51.1,29.77,SSE,157,0.0,4.5,92,0.00,,,0.00,WUHU21623XXSP,2013-05-12 09:02:00,
2013-05-12 05:07:00,53.2,50.9,29.78,SSE,157,0.0,4.5,92,0.00,,,0.00,WUHU21623XXSP,2013-05-12 09:07:00,
2013-05-12 05:12:00,53.2,50.9,29.77,SSE,157,0.0,0.0,92,0.00,,,0.00,WUHU21623XXSP,2013-05-12 09:12:00,
2013-05-12 05:17:00,53.2,50.6,29.77,SSE,157,0.0,0.0,91,0.00,,,0.00,WUHU21623XXSP,2013-05-12 09:17:00,
2013-05-12 05:22:00,53.2,50.6,29.78,SSE,157,0.0,0.0,91,0.00,,,0.00,WUHU21623XXSP,2013-05-12 09:22:00,
2013-05-12 05:27:00,53.1,50.5,29.77,South,180,0.0,0.0,91,0.00,,,0.00,WUHU21623XXSP,2013-05-12 09:27:00,
2013-05-12 05:32:00,52.9,50.0,29.76,SSW,202,0.0,0.0,90,0.00,,,0.00,WUHU21623XXSP,2013-05-12 09:32:00,
2013-05-12 05:37:00,53.2,50.4,29.76,NW,315,0.0,0.0,90,0.00,,,0.00,WUHU21623XXSP,2013-05-12 09:37:00,
2013-05-12 05:42:00,52.9,49.7,29.76,NW,315,0.0,0.0,89,0.00,,,0.00,WUHU21623XXSP,2013-05-12 09:42:00,
2013-05-12 05:47:00,52.9,50.0,29.76,NW,315,0.0,0.0,90,0.00,,,0.00,WUHU21623XXSP,2013-05-12 09:47:00,
2013-05-12 05:52:00,52.5,49.6,29.76,NW,315,0.0,0.0,90,0.00,,,0.00,WUHU21623XXSP,2013-05-12 09:52:00,
2013-05-12 05:57:00,52.3,49.5,29.77,NW,315,0.0,0.0,90,0.00,,,0.00,WUHU21623XXSP,2013-05-12 09:57:00,
2013-05-12 06:02:00,52.3,49.5,29.76,NW,315,0.0,0.0,90,0.00,,,0.00,WUHU21623XXSP,2013-05-12 10:02:00,
2013-05-12 06:07:00,52.3,49.5,29.77,NW,315,0.0,0.0,90,0.00,,,0.00,WUHU21623XXSP,2013-05-12 10:07:00,
2013-05-12 06:12:00,52.3,49.5,29.78,NW,315,0.0,0.0,90,0.00,,,0.00,WUHU21623XXSP,2013-05-12 10:12:00,
2013-05-12 06:17:00,52.3,49.5,29.78,NW,315,0.0,0.0,90,0.00,,,0.00,WUHU21623XXSP,2013-05-12 10:17:00,
2013-05-12 06:22:00,52.3,49.5,29.78,NW,315,0.0,0.0,90,0.00,,,0.00,WUHU21623XXSP,2013-05-12 10:22:00,
2013-05-12 06:27:00,52.5,49.6,29.78,NW,315,0.0,0.0,90,0.00,,,0.00,WUHU21623XXSP,2013-05-12 10:27:00,
2013-05-12 06:32:00,52.5,49.6,29.78,NW,315,0.0,0.0,90,0.00,,,0.00,WUHU21623XXSP,2013-05-12 10:32:00,
2013-05-12 06:37:00,52.7,49.8,29.78,NW,315,0.0,0.0,90,0.00,,,0.00,WUHU21623XXSP,2013-05-12 10:37:00,
2013-05-12 06:42:00,52.7,49.8,29.79,NW,315,0.0,0.0,90,0.00,,,0.00,WUHU21623XXSP,2013-05-12 10:42:00,
2013-05-12 06:47:00,52.9,50.0,29.78,NW,315,0.0,0.0,90,0.00,,,0.00,WUHU21623XXSP,2013-05-12 10:47:00,
2013-05-12 06:52:00,52.9,50.0,29.78,NW,315,0.0,0.0,90,0.00,,,0.00,WUHU21623XXSP,2013-05-12 10:52:00,
2013-05-12 06:57:00,52.9,49.7,29.78,NW,315,0.0,0.0,89,0.00,,,0.00,WUHU21623XXSP,2013-05-12 10:57:00,
2013-05-12 07:02:00,52.9,49.7,29.79,NW,315,0.0,0.0,89,0.00,,,0.00,WUHU21623XXSP,2013-05-12 11:02:00,
2013-05-12 07:07:00,52.9,49.4,29.79,NW,315,0.0,0.0,88,0.00,,,0.00,WUHU21623XXSP,2013-05-12 11:07:00,
2013-05-12 07:12:00,52.7,48.9,29.78,NW,315,0.0,0.0,87,0.00,,,0.00,WUHU21623XXSP,2013-05-12 11:12:00,
2013-05-12 07:17:00,52.5,48.4,29.77,NW,315,0.0,0.0,86,0.00,,,0.00,WUHU21623XXSP,2013-05-12 11:17:00,
2013-05-12 07:21:00,52.9,48.5,29.77,NW,315,0.0,0.0,85,0.00,,,0.00,WUHU21623XXSP,2013-05-12 11:21:00,
2013-05-12 07:27:00,53.2,48.5,29.78,NW,315,0.0,0.0,84,0.00,,,0.00,WUHU21623XXSP,2013-05-12 11:27:00,
2013-05-12 07:32:00,53.2,48.5,29.78,NW,315,0.0,0.0,84,0.00,,,0.00,WUHU21623XXSP,2013-05-12 11:32:00,
2013-05-12 07:36:00,53.2,48.8,29.78,NW,315,0.0,0.0,85,0.00,,,0.00,WUHU21623XXSP,2013-05-12 11:36:00,
2013-05-12 07:41:00,53.2,48.8,29.78,NW,315,0.0,0.0,85,0.00,,,0.00,WUHU21623XXSP,2013-05-12 11:41:00,
2013-05-12 07:46:00,52.9,47.9,29.77,NW,315,0.0,0.0,83,0.00,,,0.00,WUHU21623XXSP,2013-05-12 11:46:00,
2013-05-12 07:51:00,53.2,48.5,29.77,NW,315,0.0,0.0,84,0.00,,,0.00,WUHU21623XXSP,2013-05-12 11:51:00,
2013-05-12 07:56:00,53.2,48.8,29.77,NW,315,0.0,0.0,85,0.00,,,0.00,WUHU21623XXSP,2013-05-12 11:56:00,
2013-05-12 08:01:00,53.1,48.7,29.78,NW,315,0.0,0.0,85,0.00,,,0.00,WUHU21623XXSP,2013-05-12 12:01:00,
2013-05-12 08:06:00,52.9,48.2,29.78,NW,315,0.0,0.0,84,0.00,,,0.00,WUHU21623XXSP,2013-05-12 12:06:00,
2013-05-12 08:12:00,52.9,48.5,29.78,WNW,292,0.0,0.0,85,0.00,,,0.00,WUHU21623XXSP,2013-05-12 12:12:00,
2013-05-12 08:17:00,53.2,48.2,29.76,WNW,292,0.0,0.0,83,0.00,,,0.00,WUHU21623XXSP,2013-05-12 12:17:00,
2013-05-12 08:22:00,53.4,48.7,29.78,WSW,247,0.0,0.0,84,0.00,,,0.00,WUHU21623XXSP,2013-05-12 12:22:00,
2013-05-12 08:27:00,53.2,47.9,29.78,West,270,0.0,0.0,82,0.00,,,0.00,WUHU21623XXSP,2013-05-12 12:27:00,
2013-05-12 08:32:00,53.4,48.4,29.77,WSW,247,0.0,0.0,83,0.00,,,0.00,WUHU21623XXSP,2013-05-12 12:32:00,
2013-05-12 08:37:00,53.8,49.4,29.77,WSW,247,0.0,0.0,85,0.00,,,0.00,WUHU21623XXSP,2013-05-12 12:37:00,
2013-05-12 08:42:00,53.8,49.4,29.77,WSW,247,0.0,0.0,85,0.00,,,0.00,WUHU21623XXSP,2013-05-12 12:42:00,
2013-05-12 08:47:00,53.4,49.3,29.77,WSW,247,0.0,0.0,86,0.00,,,0.00,WUHU21623XXSP,2013-05-12 12:47:00,
2013-05-12 08:52:00,53.4,48.7,29.77,WSW,247,0.0,0.0,84,0.00,,,0.00,WUHU21623XXSP,2013-05-12 12:52:00,
2013-05-12 08:57:00,53.2,48.5,29.78,WSW,247,0.0,0.0,84,0.00,,,0.00,WUHU21623XXSP,2013-05-12 12:57:00,
2013-05-12 09:02:00,53.2,48.2,29.77,WSW,247,0.0,0.0,83,0.00,,,0.00,WUHU21623XXSP,2013-05-12 13:02:00,
2013-05-12 09:07:00,53.2,47.9,29.77,WSW,247,0.0,0.0,82,0.00,,,0.00,WUHU21623XXSP,2013-05-12 13:07:00,
2013-05-12 09:12:00,53.4,48.1,29.77,WSW,247,0.0,0.0,82,0.00,,,0.00,WUHU21623XXSP,2013-05-12 13:12:00,
2013-05-12 09:17:00,53.4,48.4,29.77,WSW,247,0.0,0.0,83,0.00,,,0.00,WUHU21623XXSP,2013-05-12 13:17:00,
2013-05-12 09:22:00,53.4,48.4,29.77,WSW,247,0.0,0.0,83,0.00,,,0.00,WUHU21623XXSP,2013-05-12 13:22:00,
2013-05-12 09:27:00,53.4,48.1,29.77,WSW,247,0.0,0.0,82,0.00,,,0.00,WUHU21623XXSP,2013-05-12 13:27:00,
2013-05-12 09:32:00,53.4,47.8,29.77,WSW,247,0.0,0.0,81,0.00,,,0.00,WUHU21623XXSP,2013-05-12 13:32:00,
2013-05-12 09:37:00,53.4,48.1,29.77,WSW,247,0.0,0.0,82,0.00,,,0.00,WUHU21623XXSP,2013-05-12 13:37:00,
2013-05-12 09:42:00,53.6,48.3,29.76,WSW,247,0.0,0.0,82,0.00,,,0.00,WUHU21623XXSP,2013-05-12 13:42:00,
2013-05-12 09:47:00,53.8,48.4,29.76,WSW,247,0.0,0.0,82,0.00,,,0.00,WUHU21623XXSP,2013-05-12 13:47:00,
2013-05-12 09:52:00,53.4,47.5,29.76,WSW,247,0.0,0.0,80,0.00,,,0.00,WUHU21623XXSP,2013-05-12 13:52:00,
2013-05-12 09:57:00,53.8,46.6,29.76,WSW,247,0.0,0.0,77,0.00,,,0.00,WUHU21623XXSP,2013-05-12 13:57:00,
2013-05-12 10:02:00,53.8,47.1,29.76,WSW,247,0.0,0.0,78,0.00,,,0.00,WUHU21623XXSP,2013-05-12 14:02:00,
2013-05-12 10:07:00,54.0,48.0,29.75,WSW,247,0.0,0.0,80,0.00,,,0.00,WUHU21623XXSP,2013-05-12 14:07:00,
2013-05-12 10:12:00,54.1,47.8,29.76,WSW,247,0.0,0.0,79,0.00,,,0.00,WUHU21623XXSP,2013-05-12 14:12:00,
2013-05-12 10:17:00,54.5,48.1,29.76,WSW,247,0.0,0.0,79,0.00,,,0.00,WUHU21623XXSP,2013-05-12 14:17:00,
2013-05-12 10:22:00,54.5,48.1,29.75,WSW,247,0.0,0.0,79,0.00,,,0.00,WUHU21623XXSP,2013-05-12 14:22:00,
2013-05-12 10:27:00,55.2,48.1,29.75,WSW,247,0.0,0.0,77,0.00,,,0.00,WUHU21623XXSP,2013-05-12 14:27:00,
2013-05-12 10:32:00,55.2,47.4,29.75,WSW,247,0.0,0.0,75,0.00,,,0.00,WUHU21623XXSP,2013-05-12 14:32:00,
2013-05-12 10:37:00,55.4,47.2,29.75,WSW,247,0.0,0.0,74,0.00,,,0.00,WUHU21623XXSP,2013-05-12 14:37:00,
2013-05-12 10:42:00,56.1,47.9,29.75,SE,135,0.0,0.0,74,0.00,,,0.00,WUHU21623XXSP,2013-05-12 14:42:00,
2013-05-12 10:47:00,57.0,47.7,29.75,SSE,157,0.0,1.3,71,0.00,,,0.00,WUHU21623XXSP,2013-05-12 14:47:00,
2013-05-12 10:52:00,57.4,48.7,29.75,SE,135,0.0,1.8,73,0.00,,,0.00,WUHU21623XXSP,2013-05-12 14:52:00,
2013-05-12 10:57:00,57.9,49.6,29.75,SSE,157,0.0,1.8,74,0.00,,,0.00,WUHU21623XXSP,2013-05-12 14:57:00,
2013-05-12 11:02:00,58.1,48.7,29.75,SSE,157,0.0,8.3,71,0.00,,,0.00,WUHU21623XXSP,2013-05-12 15:02:00,
2013-05-12 11:07:00,59.5,49.4,29.74,SSE,157,0.0,8.3,69,0.00,,,0.00,WUHU21623XXSP,2013-05-12 15:07:00,
2013-05-12 11:12:00,60.1,51.1,29.74,NW,315,0.0,3.8,70,0.00,,,0.00,WUHU21623XXSP,2013-05-12 15:12:00,
2013-05-12 11:17:00,60.1,49.1,29.74,WSW,247,1.8,2.2,67,0.00,,,0.00,WUHU21623XXSP,2013-05-12 15:17:00,
2013-05-12 11:22:00,59.4,47.6,29.74,South,180,0.0,4.3,65,0.00,,,0.00,WUHU21623XXSP,2013-05-12 15:22:00,
2013-05-12 11:27:00,59.7,49.6,29.74,SW,225,0.0,4.3,67,0.00,,,0.00,WUHU21623XXSP,2013-05-12 15:27:00,
2013-05-12 11:32:00,59.7,49.2,29.73,East,90,0.0,5.6,67,0.00,,,0.00,WUHU21623XXSP,2013-05-12 15:32:00,
2013-05-12 11:37:00,59.5,47.8,29.74,SSE,157,0.0,5.6,65,0.00,,,0.00,WUHU21623XXSP,2013-05-12 15:37:00,
2013-05-12 11:42:00,60.4,49.1,29.73,SSW,202,0.0,2.5,66,0.00,,,0.00,WUHU21623XXSP,2013-05-12 15:42:00,
2013-05-12 11:47:00,61.2,49.7,29.73,SE,135,0.0,4.3,66,0.00,,,0.00,WUHU21623XXSP,2013-05-12 15:47:00,
2013-05-12 11:52:00,61.5,48.4,29.73,WSW,247,0.0,4.3,62,0.00,,,0.00,WUHU21623XXSP,2013-05-12 15:52:00,
2013-05-12 11:57:00,62.8,50.0,29.72,East,90,6.9,6.9,63,0.00,,,0.00,WUHU21623XXSP,2013-05-12 15:57:00,
2013-05-12 12:02:00,61.9,48.7,29.72,SW,225,0.0,6.9,62,0.00,,,0.00,WUHU21623XXSP,2013-05-12 16:02:00,
2013-05-12 12:07:00,60.6,47.6,29.73,SW,225,0.0,5.1,62,0.00,,,0.00,WUHU21623XXSP,2013-05-12 16:07:00,
2013-05-12 12:12:00,60.4,49.1,29.73,WNW,292,0.0,3.8,66,0.00,,,0.00,WUHU21623XXSP,2013-05-12 16:12:00,
2013-05-12 12:17:00,59.7,47.5,29.72,SW,225,0.0,6.9,64,0.00,,,0.00,WUHU21623XXSP,2013-05-12 16:17:00,
2013-05-12 12:22:00,59.7,47.5,29.72,SSW,202,0.0,6.9,64,0.00,,,0.00,WUHU21623XXSP,2013-05-12 16:22:00,
2013-05-12 12:27:00,59.7,47.5,29.72,SW,225,0.0,5.6,64,0.00,,,0.00,WUHU21623XXSP,2013-05-12 16:27:00,
2013-05-12 12:32:00,60.1,48.7,29.72,ENE,67,0.0,5.6,66,0.00,,,0.00,WUHU21623XXSP,2013-05-12 16:32:00,
2013-05-12 12:37:00,60.6,47.6,29.72,SSW,202,0.0,4.3,62,0.00,,,0.00,WUHU21623XXSP,2013-05-12 16:37:00,
2013-05-12 12:41:00,61.2,47.5,29.72,SE,135,0.0,2.7,64,0.00,,,0.00,WUHU21623XXSP,2013-05-12 16:41:00,
2013-05-12 12:46:00,61.5,48.4,29.72,NW,315,0.0,2.9,62,0.00,,,0.00,WUHU21623XXSP,2013-05-12 16:46:00,
2013-05-12 12:51:00,61.2,47.3,29.72,SSW,202,0.0,6.5,60,0.00,,,0.00,WUHU21623XXSP,2013-05-12 16:51:00,
2013-05-12 12:56:00,61.0,47.5,29.72,SW,225,4.5,8.1,61,0.00,,,0.00,WUHU21623XXSP,2013-05-12 16:56:00,
2013-05-12 13:01:00,61.9,46.5,29.72,SW,225,0.0,13.4,57,0.00,,,0.00,WUHU21623XXSP,2013-05-12 17:01:00,
2013-05-12 13:06:00,62.2,47.3,29.72,WSW,247,7.8,13.4,58,0.00,,,0.00,WUHU21623XXSP,2013-05-12 17:06:00,
2013-05-12 13:11:00,62.4,46.9,29.72,SSW,202,0.0,7.8,57,0.00,,,0.00,WUHU21623XXSP,2013-05-12 17:11:00,
2013-05-12 13:16:00,61.5,46.6,29.72,SSW,202,0.0,7.8,58,0.00,,,0.00,WUHU21623XXSP,2013-05-12 17:16:00,
2013-05-12 13:21:00,61.7,47.3,29.72,SSE,157,0.0,3.8,59,0.00,,,0.00,WUHU21623XXSP,2013-05-12 17:21:00,
2013-05-12 13:26:00,62.2,47.3,29.72,SE,135,0.0,9.4,58,0.00,,,0.00,WUHU21623XXSP,2013-05-12 17:26:00,
2013-05-12 13:31:00,61.9,46.0,29.73,WSW,247,0.0,9.4,56,0.00,,,0.00,WUHU21623XXSP,2013-05-12 17:31:00,
2013-05-12 13:36:00,61.3,46.0,29.73,SW,225,0.0,8.3,57,0.00,,,0.00,WUHU21623XXSP,2013-05-12 17:36:00,
2013-05-12 13:41:00,61.0,45.6,29.73,SE,135,0.0,8.3,57,0.00,,,0.00,WUHU21623XXSP,2013-05-12 17:41:00,
2013-05-12 13:46:00,60.6,47.2,29.73,SE,135,2.5,7.6,61,0.00,,,0.00,WUHU21623XXSP,2013-05-12 17:46:00,
2013-05-12 13:51:00,60.6,45.3,29.73,WSW,247,0.0,10.1,57,0.00,,,0.00,WUHU21623XXSP,2013-05-12 17:51:00,
2013-05-12 13:56:00,62.2,46.3,29.73,SE,135,0.0,11.6,56,0.00,,,0.00,WUHU21623XXSP,2013-05-12 17:56:00,
2013-05-12 14:01:00,62.4,44.5,29.73,SW,225,0.0,11.6,52,0.00,,,0.00,WUHU21623XXSP,2013-05-12 18:01:00,
2013-05-12 14:06:00,62.4,46.0,29.73,WSW,247,4.0,13.0,55,0.00,,,0.00,WUHU21623XXSP,2013-05-12 18:06:00,
2013-05-12 14:11:00,63.7,47.6,29.73,SSE,157,3.4,13.0,56,0.00,,,0.00,WUHU21623XXSP,2013-05-12 18:11:00,
2013-05-12 14:16:00,63.7,46.6,29.73,South,180,0.0,10.3,54,0.00,,,0.00,WUHU21623XXSP,2013-05-12 18:16:00,
2013-05-12 14:21:00,63.1,46.6,29.73,SSW,202,4.0,10.3,55,0.00,,,0.00,WUHU21623XXSP,2013-05-12 18:21:00,
2013-05-12 14:26:00,62.8,45.8,29.73,SE,135,0.0,8.1,54,0.00,,,0.00,WUHU21623XXSP,2013-05-12 18:26:00,
2013-05-12 14:31:00,62.8,47.8,29.72,SSE,157,0.0,7.4,58,0.00,,,0.00,WUHU21623XXSP,2013-05-12 18:31:00,
2013-05-12 14:36:00,62.8,46.3,29.72,WSW,247,0.0,6.5,55,0.00,,,0.00,WUHU21623XXSP,2013-05-12 18:36:00,
2013-05-12 14:41:00,63.3,46.8,29.73,WSW,247,0.0,4.9,55,0.00,,,0.00,WUHU21623XXSP,2013-05-12 18:41:00,
2013-05-12 14:46:00,62.8,46.3,29.72,WSW,247,0.0,1.8,55,0.00,,,0.00,WUHU21623XXSP,2013-05-12 18:46:00,
2013-05-12 14:51:00,63.1,46.1,29.71,WSW,247,0.0,2.9,54,0.00,,,0.00,WUHU21623XXSP,2013-05-12 18:51:00,
2013-05-12 14:56:00,62.8,46.3,29.71,SW,225,2.0,9.4,55,0.00,,,0.00,WUHU21623XXSP,2013-05-12 18:56:00,
2013-05-12 15:01:00,62.1,45.6,29.72,NW,315,2.2,9.6,55,0.00,,,0.00,WUHU21623XXSP,2013-05-12 19:01:00,
2013-05-12 15:06:00,61.5,47.1,29.72,WNW,292,1.6,9.6,59,0.00,,,0.00,WUHU21623XXSP,2013-05-12 19:06:00,
2013-05-12 15:11:00,61.5,46.6,29.72,WSW,247,0.0,5.8,58,0.00,,,0.00,WUHU21623XXSP,2013-05-12 19:11:00,
2013-05-12 15:16:00,62.6,46.1,29.73,SSW,202,0.0,8.1,55,0.00,,,0.00,WUHU21623XXSP,2013-05-12 19:16:00,
2013-05-12 15:21:00,60.8,45.6,29.73,SSW,202,2.7,8.1,57,0.00,,,0.00,WUHU21623XXSP,2013-05-12 19:21:00,
2013-05-12 15:26:00,60.4,46.6,29.73,WSW,247,1.1,6.5,60,0.00,,,0.00,WUHU21623XXSP,2013-05-12 19:26:00,
2013-05-12 15:31:00,60.1,46.2,29.74,WSW,247,0.0,7.6,60,0.00,,,0.00,WUHU21623XXSP,2013-05-12 19:31:00,
2013-05-12 15:36:00,58.6,45.2,29.74,NNE,22,2.5,7.6,61,0.00,,,0.00,WUHU21623XXSP,2013-05-12 19:36:00,
2013-05-12 15:41:00,58.1,45.5,29.74,WSW,247,1.8,8.3,63,0.00,,,0.00,WUHU21623XXSP,2013-05-12 19:41:00,
2013-05-12 15:46:00,58.8,45.8,29.75,North,0,8.7,8.7,62,0.00,,,0.00,WUHU21623XXSP,2013-05-12 19:46:00,
2013-05-12 15:51:00,58.8,44.5,29.75,SSE,157,2.0,11.6,59,0.00,,,0.00,WUHU21623XXSP,2013-05-12 19:51:00,
2013-05-12 15:56:00,57.4,41.8,29.76,SSW,202,4.9,14.1,56,0.00,,,0.00,WUHU21623XXSP,2013-05-12 19:56:00,
2013-05-12 16:01:00,56.1,40.6,29.76,WSW,247,0.0,14.1,56,0.00,,,0.00,WUHU21623XXSP,2013-05-12 20:01:00,
2013-05-12 16:06:00,56.3,40.7,29.76,WSW,247,0.0,7.8,56,0.00,,,0.00,WUHU21623XXSP,2013-05-12 20:06:00,
2013-05-12 16:11:00,56.5,40.9,29.76,SSE,157,0.0,7.8,56,0.00,,,0.00,WUHU21623XXSP,2013-05-12 20:11:00,
2013-05-12 16:16:00,55.9,39.0,29.76,South,180,5.8,8.7,53,0.00,,,0.00,WUHU21623XXSP,2013-05-12 20:16:00,
2013-05-12 16:21:00,55.8,38.8,29.77,WSW,247,0.0,8.7,53,0.00,,,0.00,WUHU21623XXSP,2013-05-12 20:21:00,
2013-05-12 16:26:00,56.5,38.6,29.77,WSW,247,0.0,9.4,51,0.00,,,0.00,WUHU21623XXSP,2013-05-12 20:26:00,
2013-05-12 16:31:00,55.8,36.3,29.76,SE,135,4.7,9.4,48,0.00,,,0.00,WUHU21623XXSP,2013-05-12 20:31:00,
2013-05-12 16:36:00,54.9,36.0,29.76,SSE,157,0.0,9.2,49,0.00,,,0.00,WUHU21623XXSP,2013-05-12 20:36:00,
2013-05-12 16:41:00,54.3,36.5,29.76,South,180,0.7,6.3,51,0.00,,,0.00,WUHU21623XXSP,2013-05-12 20:41:00,
2013-05-12 16:46:00,54.3,35.9,29.76,SE,135,0.0,6.3,50,0.00,,,0.00,WUHU21623XXSP,2013-05-12 20:46:00,
2013-05-12 16:51:00,54.3,35.5,29.77,NW,315,0.0,10.1,49,0.00,,,0.00,WUHU21623XXSP,2013-05-12 20:51:00,
2013-05-12 16:56:00,54.1,35.9,29.77,SW,225,0.0,10.1,50,0.00,,,0.00,WUHU21623XXSP,2013-05-12 20:56:00,
2013-05-12 17:01:00,54.3,37.0,29.77,WSW,247,0.0,4.9,52,0.00,,,0.00,WUHU21623XXSP,2013-05-12 21:01:00,
2013-05-12 17:06:00,55.6,37.2,29.77,WSW,247,0.0,6.5,50,0.00,,,0.00,WUHU21623XXSP,2013-05-12 21:06:00,
2013-05-12 17:11:00,55.8,36.3,29.77,SE,135,10.5,10.5,48,0.00,,,0.00,WUHU21623XXSP,2013-05-12 21:11:00,
2013-05-12 17:16:00,55.2,36.3,29.77,WSW,247,0.0,10.5,49,0.00,,,0.00,WUHU21623XXSP,2013-05-12 21:16:00,
2013-05-12 17:21:00,55.6,36.6,29.78,WSW,247,0.0,5.8,49,0.00,,,0.00,WUHU21623XXSP,2013-05-12 21:21:00,
2013-05-12 17:26:00,56.5,37.5,29.77,WSW,247,0.0,5.8,49,0.00,,,0.00,WUHU21623XXSP,2013-05-12 21:26:00,
2013-05-12 17:31:00,55.2,35.4,29.77,WSW,247,0.0,8.3,47,0.00,,,0.00,WUHU21623XXSP,2013-05-12 21:31:00,
2013-05-12 17:36:00,54.1,35.3,29.77,WSW,247,0.0,8.3,49,0.00,,,0.00,WUHU21623XXSP,2013-05-12 21:36:00,
2013-05-12 17:41:00,53.8,36.0,29.78,WSW,247,0.0,7.4,51,0.00,,,0.00,WUHU21623XXSP,2013-05-12 21:41:00,
2013-05-12 17:46:00,53.6,35.9,29.78,WSW,247,0.0,4.5,51,0.00,,,0.00,WUHU21623XXSP,2013-05-12 21:46:00,
2013-05-12 17:51:00,53.6,35.9,29.78,WSW,247,0.0,4.5,51,0.00,,,0.00,WUHU21623XXSP,2013-05-12 21:51:00,
2013-05-12 17:56:00,53.4,35.3,29.78,WSW,247,0.0,8.1,50,0.00,,,0.00,WUHU21623XXSP,2013-05-12 21:56:00,
2013-05-12 18:01:00,53.2,35.5,29.78,SE,135,0.0,8.1,51,0.00,,,0.00,WUHU21623XXSP,2013-05-12 22:01:00,
2013-05-12 18:06:00,53.2,35.5,29.78,NNW,337,0.0,7.6,51,0.00,,,0.00,WUHU21623XXSP,2013-05-12 22:06:00,
2013-05-12 18:11:00,53.2,36.0,29.78,WNW,292,0.0,6.9,52,0.00,,,0.00,WUHU21623XXSP,2013-05-12 22:11:00,
2013-05-12 18:16:00,53.2,37.4,29.78,SSE,157,0.0,7.6,55,0.00,,,0.00,WUHU21623XXSP,2013-05-12 22:16:00,
2013-05-12 18:21:00,53.2,37.9,29.78,SE,135,0.7,7.6,56,0.00,,,0.00,WUHU21623XXSP,2013-05-12 22:21:00,
2013-05-12 18:26:00,53.4,37.1,29.79,South,180,9.2,9.2,54,0.00,,,0.00,WUHU21623XXSP,2013-05-12 22:26:00,
2013-05-12 18:31:00,53.4,37.1,29.79,WSW,247,0.0,9.2,53,0.00,,,0.00,WUHU21623XXSP,2013-05-12 22:31:00,
2013-05-12 18:36:00,53.2,37.0,29.79,SE,135,1.6,9.2,54,0.00,,,0.00,WUHU21623XXSP,2013-05-12 22:36:00,
2013-05-12 18:41:00,52.9,36.6,29.79,SE,135,0.0,7.8,54,0.00,,,0.00,WUHU21623XXSP,2013-05-12 22:41:00,
2013-05-12 18:46:00,52.7,36.0,29.79,NNW,337,0.0,13.4,53,0.00,,,0.00,WUHU21623XXSP,2013-05-12 22:46:00,
2013-05-12 18:51:00,52.5,34.4,29.80,SSE,157,4.9,13.4,50,0.00,,,0.00,WUHU21623XXSP,2013-05-12 22:51:00,
2013-05-12 18:56:00,52.3,34.7,29.80,SW,225,0.0,11.6,51,0.00,,,0.00,WUHU21623XXSP,2013-05-12 22:56:00,
2013-05-12 19:01:00,52.3,33.7,29.81,SSE,157,0.0,11.6,49,0.00,,,0.00,WUHU21623XXSP,2013-05-12 23:01:00,
2013-05-12 19:06:00,51.8,32.1,29.81,South,180,0.0,5.8,47,0.00,,,0.00,WUHU21623XXSP,2013-05-12 23:06:00,
2013-05-12 19:11:00,51.6,32.5,29.82,SSW,202,0.0,3.6,48,0.00,,,0.00,WUHU21623XXSP,2013-05-12 23:11:00,
2013-05-12 19:16:00,51.3,30.0,29.82,West,270,0.0,6.9,44,0.00,,,0.00,WUHU21623XXSP,2013-05-12 23:16:00,
2013-05-12 19:22:00,51.1,33.2,29.82,NNE,22,0.0,6.9,50,0.00,,,0.00,WUHU21623XXSP,2013-05-12 23:22:00,
2013-05-12 19:26:00,50.7,31.7,29.82,SE,135,0.0,7.4,48,0.00,,,0.00,WUHU21623XXSP,2013-05-12 23:26:00,
2013-05-12 19:31:00,50.5,31.0,29.82,WNW,292,0.0,14.1,47,0.00,,,0.00,WUHU21623XXSP,2013-05-12 23:31:00,
2013-05-12 19:36:00,50.4,29.7,29.82,WSW,247,0.0,14.1,45,0.00,,,0.00,WUHU21623XXSP,2013-05-12 23:36:00,
2013-05-12 19:41:00,49.8,30.3,29.83,NE,45,0.0,4.7,47,0.00,,,0.00,WUHU21623XXSP,2013-05-12 23:41:00,
2013-05-12 19:46:00,49.6,32.3,29.83,WSW,247,2.5,4.9,51,0.00,,,0.00,WUHU21623XXSP,2013-05-12 23:46:00,
2013-05-12 19:51:00,49.6,28.5,29.82,SSE,157,1.8,4.9,44,0.00,,,0.00,WUHU21623XXSP,2013-05-12 23:51:00,
2013-05-12 19:56:00,49.6,29.6,29.83,SSW,202,0.0,4.0,46,0.00,,,0.00,WUHU21623XXSP,2013-05-12 23:56:00,
2013-05-12 20:01:00,49.1,29.6,29.83,SSW,202,0.0,4.0,47,0.00,,,0.00,WUHU21623XXSP,2013-05-13 00:01:00,
2013-05-12 20:06:00,48.7,29.8,29.83,NW,315,0.0,3.4,48,0.00,,,0.00,WUHU21623XXSP,2013-05-13 00:06:00,
2013-05-12 20:11:00,48.4,28.9,29.84,ESE,112,0.0,3.4,47,0.00,,,0.00,WUHU21623XXSP,2013-05-13 00:11:00,
2013-05-12 20:16:00,48.0,28.6,29.84,ESE,112,0.0,1.8,47,0.00,,,0.00,WUHU21623XXSP,2013-05-13 00:16:00,
2013-05-12 20:21:00,48.0,30.2,29.84,ESE,112,0.0,0.0,50,0.00,,,0.00,WUHU21623XXSP,2013-05-13 00:21:00,
2013-05-12 20:26:00,47.7,28.8,29.84,ESE,112,0.0,3.4,48,0.00,,,0.00,WUHU21623XXSP,2013-05-13 00:26:00,
2013-05-12 20:31:00,47.5,28.1,29.84,ENE,67,0.0,8.3,47,0.00,,,0.00,WUHU21623XXSP,2013-05-13 00:31:00,
2013-05-12 20:36:00,47.1,29.4,29.84,WSW,247,2.0,11.9,50,0.00,,,0.00,WUHU21623XXSP,2013-05-13 00:36:00,
2013-05-12 20:41:00,47.5,29.2,29.84,WNW,292,0.0,11.9,49,0.00,,,0.00,WUHU21623XXSP,2013-05-13 00:41:00,
2013-05-12 20:46:00,47.8,29.0,29.84,WNW,292,2.5,6.7,48,0.00,,,0.00,WUHU21623XXSP,2013-05-13 00:46:00,
2013-05-12 20:51:00,48.0,28.1,29.84,WNW,292,0.0,7.8,46,0.00,,,0.00,WUHU21623XXSP,2013-05-13 00:51:00,
2013-05-12 20:56:00,47.8,29.0,29.84,WNW,292,0.0,7.8,48,0.00,,,0.00,WUHU21623XXSP,2013-05-13 00:56:00,
2013-05-12 21:01:00,47.8,30.5,29.85,SSE,157,0.0,7.8,51,0.00,,,0.00,WUHU21623XXSP,2013-05-13 01:01:00,
2013-05-12 21:06:00,47.3,28.5,29.85,WSW,247,0.0,7.2,48,0.00,,,0.00,WUHU21623XXSP,2013-05-13 01:06:00,
2013-05-12 21:11:00,47.5,28.1,29.85,WSW,247,0.0,6.7,47,0.00,,,0.00,WUHU21623XXSP,2013-05-13 01:11:00,
2013-05-12 21:16:00,47.3,27.9,29.86,WNW,292,0.0,6.7,47,0.00,,,0.00,WUHU21623XXSP,2013-05-13 01:16:00,
2013-05-12 21:21:00,47.1,28.3,29.85,SSE,157,6.5,6.5,48,0.00,,,0.00,WUHU21623XXSP,2013-05-13 01:21:00,
2013-05-12 21:26:00,46.8,29.5,29.86,NNE,22,5.4,8.5,51,0.00,,,0.00,WUHU21623XXSP,2013-05-13 01:26:00,
2013-05-12 21:31:00,46.8,29.1,29.86,ESE,112,0.0,8.5,50,0.00,,,0.00,WUHU21623XXSP,2013-05-13 01:31:00,
2013-05-12 21:36:00,46.2,29.5,29.87,SW,225,0.0,7.6,52,0.00,,,0.00,WUHU21623XXSP,2013-05-13 01:36:00,
2013-05-12 21:41:00,46.0,29.3,29.87,NNW,337,0.0,3.1,52,0.00,,,0.00,WUHU21623XXSP,2013-05-13 01:41:00,
2013-05-12 21:46:00,45.7,29.5,29.87,South,180,0.0,3.1,53,0.00,,,0.00,WUHU21623XXSP,2013-05-13 01:46:00,
2013-05-12 21:51:00,45.7,29.5,29.87,SSE,157,0.0,0.0,53,0.00,,,0.00,WUHU21623XXSP,2013-05-13 01:51:00,
2013-05-12 21:56:00,45.7,28.1,29.87,East,90,0.0,7.8,50,0.00,,,0.00,WUHU21623XXSP,2013-05-13 01:56:00,
2013-05-12 22:01:00,45.7,30.8,29.87,South,180,6.0,10.3,56,0.00,,,0.00,WUHU21623XXSP,2013-05-13 02:01:00,
2013-05-12 22:06:00,45.5,30.6,29.88,WNW,292,2.0,10.3,56,0.00,,,0.00,WUHU21623XXSP,2013-05-13 02:06:00,
2013-05-12 22:11:00,45.3,29.6,29.88,WNW,292,0.0,9.8,54,0.00,,,0.00,WUHU21623XXSP,2013-05-13 02:11:00,
2013-05-12 22:16:00,45.7,28.6,29.88,SSW,202,0.0,11.0,51,0.00,,,0.00,WUHU21623XXSP,2013-05-13 02:16:00,
2013-05-12 22:21:00,45.5,28.9,29.89,SW,225,0.0,11.0,52,0.00,,,0.00,WUHU21623XXSP,2013-05-13 02:21:00,
2013-05-12 22:26:00,45.3,29.6,29.88,WSW,247,2.0,7.8,54,0.00,,,0.00,WUHU21623XXSP,2013-05-13 02:26:00,
2013-05-12 22:31:00,45.1,29.9,29.89,West,270,0.0,7.8,55,0.00,,,0.00,WUHU21623XXSP,2013-05-13 02:31:00,
2013-05-12 22:36:00,45.0,28.8,29.89,ESE,112,2.0,4.9,53,0.00,,,0.00,WUHU21623XXSP,2013-05-13 02:36:00,
2013-05-12 22:41:00,45.0,29.7,29.89,ESE,112,0.0,2.0,55,0.00,,,0.00,WUHU21623XXSP,2013-05-13 02:41:00,
2013-05-12 22:46:00,44.4,29.2,29.89,SSW,202,0.0,4.5,55,0.00,,,0.00,WUHU21623XXSP,2013-05-13 02:46:00,
2013-05-12 22:51:00,44.4,29.2,29.90,WNW,292,0.0,4.5,55,0.00,,,0.00,WUHU21623XXSP,2013-05-13 02:51:00,
2013-05-12 22:56:00,44.2,29.0,29.89,South,180,0.0,5.1,55,0.00,,,0.00,WUHU21623XXSP,2013-05-13 02:56:00,
2013-05-12 23:01:00,43.9,28.3,29.89,SSW,202,0.0,5.1,54,0.00,,,0.00,WUHU21623XXSP,2013-05-13 03:01:00,
2013-05-12 23:06:00,43.9,29.6,29.89,South,180,0.0,6.0,56,0.00,,,0.00,WUHU21623XXSP,2013-05-13 03:06:00,
2013-05-12 23:11:00,43.9,29.6,29.89,SW,225,0.0,6.0,57,0.00,,,0.00,WUHU21623XXSP,2013-05-13 03:11:00,
2013-05-12 23:16:00,43.7,29.4,29.89,South,180,0.0,6.5,57,0.00,,,0.00,WUHU21623XXSP,2013-05-13 03:16:00,
2013-05-12 23:21:00,43.9,27.8,29.90,NNW,337,0.0,6.5,53,0.00,,,0.00,WUHU21623XXSP,2013-05-13 03:21:00,
2013-05-12 23:26:00,43.5,28.8,29.90,WNW,292,0.0,3.4,56,0.00,,,0.00,WUHU21623XXSP,2013-05-13 03:26:00,
2013-05-12 23:31:00,43.3,28.6,29.90,South,180,0.0,6.0,56,0.00,,,0.00,WUHU21623XXSP,2013-05-13 03:31:00,
2013-05-12 23:36:00,43.2,27.6,29.90,SE,135,2.2,6.0,54,0.00,,,0.00,WUHU21623XXSP,2013-05-13 03:36:00,
2013-05-12 23:41:00,43.3,28.2,29.90,SE,135,0.0,6.0,55,0.00,,,0.00,WUHU21623XXSP,2013-05-13 03:41:00,
2013-05-12 23:46:00,43.2,27.1,29.90,SSW,202,0.0,6.0,53,0.00,,,0.00,WUHU21623XXSP,2013-05-13 03:46:00,
2013-05-12 23:51:00,42.8,26.8,29.90,SW,225,0.0,2.0,53,0.00,,,0.00,WUHU21623XXSP,2013-05-13 03:51:00,
2013-05-12 23:56:00,42.6,27.5,29.90,SSW,202,0.0,5.6,55,0.00,,,0.00,WUHU21623XXSP,2013-05-13 03:56:00,